createdAt,value
2023-04-15T00:01:00.036Z,75.22
2023-04-15T00:03:30.229Z,75.33
2023-04-15T00:06:00.127Z,74.99
2023-04-15T00:08:29.193Z,74.96
2023-04-15T00:10:59.693Z,75.04
2023-04-15T00:13:28.609Z,75.25
2023-04-15T00:15:56.885Z,74.88
2023-04-15T00:18:25.670Z,74.98
2023-04-15T00:20:54.687Z,75.02
2023-04-15T00:23:23.114Z,75.08
2023-04-15T00:25:51.308Z,75.27
2023-04-15T00:28:19.879Z,75.42
2023-04-15T00:30:48.228Z,75.19
2023-04-15T00:33:16.830Z,75.31
2023-04-15T00:35:45.230Z,75.13
2023-04-15T00:38:13.407Z,75.14
2023-04-15T00:40:41.965Z,75.34
2023-04-15T00:43:10.424Z,75.31
2023-04-15T00:45:38.630Z,75.48
2023-04-15T00:48:07.332Z,75.29
2023-04-15T00:50:35.830Z,75.44
2023-04-15T00:53:04.079Z,75.51
2023-04-15T00:55:32.395Z,75.38
2023-04-15T00:58:00.774Z,75.69
2023-04-15T01:00:30.562Z,75.61
2023-04-15T01:02:58.960Z,75.47
2023-04-15T01:05:28.163Z,75.52
2023-04-15T01:07:56.466Z,75.74
2023-04-15T01:10:24.661Z,75.54
2023-04-15T01:12:53.378Z,75.50
2023-04-15T01:15:22.167Z,75.38
2023-04-15T01:17:51.005Z,75.50
2023-04-15T01:20:19.682Z,75.71
2023-04-15T01:22:49.294Z,75.98
2023-04-15T01:25:33.653Z,76.12
2023-04-15T01:28:02.427Z,76.39
2023-04-15T01:30:34.951Z,76.32
2023-04-15T01:33:04.015Z,76.55
2023-04-15T01:35:33.138Z,76.87
2023-04-15T01:38:06.687Z,77.02
2023-04-15T01:40:36.058Z,77.28
2023-04-15T01:43:04.725Z,77.60
2023-04-15T01:45:32.954Z,77.83
2023-04-15T01:48:01.618Z,77.83
2023-04-15T01:50:29.835Z,78.23
2023-04-15T01:52:58.577Z,78.23
2023-04-15T01:55:27.316Z,78.73
2023-04-15T01:57:55.504Z,78.58
2023-04-15T02:00:24.338Z,78.74
2023-04-15T02:02:52.689Z,78.94
2023-04-15T02:05:21.077Z,78.79
2023-04-15T02:07:49.710Z,78.90
2023-04-15T02:10:18.139Z,79.17
2023-04-15T02:12:46.791Z,79.10
2023-04-15T02:15:15.715Z,79.23
2023-04-15T02:17:46.192Z,79.14
2023-04-15T02:20:15.677Z,79.17
2023-04-15T02:22:44.082Z,79.29
2023-04-15T02:25:12.435Z,79.59
2023-04-15T02:27:40.708Z,79.34
2023-04-15T02:30:09.482Z,79.24
2023-04-15T02:32:38.434Z,79.38
2023-04-15T02:35:09.577Z,79.35
2023-04-15T02:37:43.894Z,79.49
2023-04-15T02:40:13.576Z,79.72
2023-04-15T02:42:44.440Z,79.74
2023-04-15T02:45:13.234Z,79.95
2023-04-15T02:47:41.901Z,80.04
2023-04-15T02:50:13.361Z,80.16
2023-04-15T02:52:42.639Z,80.31
2023-04-15T02:55:11.304Z,80.14
2023-04-15T02:57:40.932Z,80.02
2023-04-15T03:00:11.876Z,80.12
2023-04-15T03:02:42.442Z,80.24
2023-04-15T03:05:15.174Z,80.00
2023-04-15T03:07:43.556Z,79.75
2023-04-15T03:10:11.931Z,79.88
2023-04-15T03:12:40.967Z,79.71
2023-04-15T03:15:10.203Z,79.64
2023-04-15T03:17:39.348Z,79.54
2023-04-15T03:20:08.244Z,79.53
2023-04-15T03:22:36.684Z,79.45
2023-04-15T03:25:05.299Z,79.40
2023-04-15T03:27:33.632Z,79.38
2023-04-15T03:30:01.915Z,79.26
2023-04-15T03:32:30.215Z,79.30
2023-04-15T03:34:58.625Z,79.33
2023-04-15T03:37:26.790Z,79.21
2023-04-15T03:39:54.978Z,79.10
2023-04-15T03:42:23.520Z,79.06
2023-04-15T03:44:51.756Z,78.88
2023-04-15T03:47:20.019Z,78.72
2023-04-15T03:49:48.340Z,78.64
2023-04-15T03:52:16.632Z,78.77
2023-04-15T03:54:44.826Z,78.51
2023-04-15T03:57:13.142Z,78.47
2023-04-15T03:59:41.379Z,78.48
2023-04-15T04:02:09.810Z,78.64
2023-04-15T04:04:38.225Z,78.62
2023-04-15T04:07:06.640Z,78.62
2023-04-15T04:09:34.912Z,78.66
2023-04-15T04:12:04.932Z,78.70
2023-04-15T04:14:33.089Z,78.60
2023-04-15T04:17:01.721Z,78.67
2023-04-15T04:19:31.122Z,78.79
2023-04-15T04:21:59.346Z,78.97
2023-04-15T04:24:27.543Z,79.14
2023-04-15T04:26:57.487Z,79.44
2023-04-15T04:29:25.755Z,79.51
2023-04-15T04:31:54.215Z,79.70
2023-04-15T04:34:22.455Z,79.81
2023-04-15T04:36:50.826Z,79.88
2023-04-15T04:39:19.075Z,80.09
2023-04-15T04:41:47.332Z,80.04
2023-04-15T04:44:15.557Z,80.19
2023-04-15T04:46:43.999Z,80.29
2023-04-15T04:49:12.195Z,80.25
2023-04-15T04:51:40.721Z,80.47
2023-04-15T04:54:09.831Z,80.49
2023-04-15T04:56:39.950Z,80.65
2023-04-15T04:59:08.310Z,80.94
2023-04-15T05:01:36.737Z,81.00
2023-04-15T05:04:05.668Z,81.02
2023-04-15T05:06:36.040Z,81.20
2023-04-15T05:09:04.393Z,81.32
2023-04-15T05:11:32.691Z,81.48
2023-04-15T05:14:02.527Z,81.41
2023-04-15T05:16:30.710Z,81.34
2023-04-15T05:18:59.098Z,81.37
2023-04-15T05:21:27.916Z,81.65
2023-04-15T05:23:56.178Z,81.39
2023-04-15T05:26:24.583Z,81.61
2023-04-15T05:28:52.791Z,81.49
2023-04-15T05:31:21.316Z,81.56
2023-04-15T05:33:49.685Z,81.35
2023-04-15T05:36:17.873Z,81.28
2023-04-15T05:38:46.921Z,81.04
2023-04-15T05:41:18.385Z,81.03
2023-04-15T05:43:48.157Z,80.91
2023-04-15T05:46:16.723Z,80.90
2023-04-15T05:48:44.927Z,80.81
2023-04-15T05:51:13.314Z,80.63
2023-04-15T05:53:42.067Z,80.71
2023-04-15T05:56:10.256Z,80.68
2023-04-15T05:58:41.886Z,80.66
2023-04-15T06:01:10.878Z,80.75
2023-04-15T06:03:40.046Z,80.59
2023-04-15T06:06:09.016Z,80.47
2023-04-15T06:08:38.813Z,80.39
2023-04-15T06:11:07.489Z,80.24
2023-04-15T06:13:35.954Z,80.15
2023-04-15T06:16:04.559Z,79.86
2023-04-15T06:18:32.954Z,79.59
2023-04-15T06:21:01.341Z,79.41
2023-04-15T06:23:29.945Z,79.50
2023-04-15T06:25:58.373Z,79.04
2023-04-15T06:28:26.614Z,78.70
2023-04-15T06:30:55.971Z,78.65
2023-04-15T06:33:25.107Z,78.53
2023-04-15T06:35:53.717Z,78.71
2023-04-15T06:38:21.954Z,78.49
2023-04-15T06:40:50.671Z,78.30
2023-04-15T06:43:19.005Z,78.18
2023-04-15T06:45:47.423Z,77.94
2023-04-15T06:48:15.832Z,77.96
2023-04-15T06:50:46.579Z,78.02
2023-04-15T06:53:14.904Z,78.12
2023-04-15T06:55:43.131Z,78.07
2023-04-15T06:58:11.603Z,78.10
2023-04-15T07:00:39.844Z,77.93
2023-04-15T07:03:11.426Z,77.29
2023-04-15T07:05:39.918Z,77.31
2023-04-15T07:08:08.224Z,77.24
2023-04-15T07:10:37.366Z,77.31
2023-04-15T07:13:07.378Z,77.30
2023-04-15T07:15:36.029Z,77.44
2023-04-15T07:18:04.413Z,77.31
2023-04-15T07:20:32.843Z,77.44
2023-04-15T07:23:01.101Z,77.40
2023-04-15T07:25:29.327Z,77.46
2023-04-15T07:27:57.765Z,77.23
2023-04-15T07:30:28.266Z,77.44
2023-04-15T07:32:59.612Z,77.33
2023-04-15T07:35:28.566Z,77.20
2023-04-15T07:37:59.682Z,76.97
2023-04-15T07:40:32.110Z,76.84
2023-04-15T07:43:00.522Z,76.83
2023-04-15T07:45:29.033Z,77.54
2023-04-15T07:47:57.513Z,77.37
2023-04-15T07:50:33.857Z,76.96
2023-04-15T07:53:02.943Z,77.27
2023-04-15T07:55:32.501Z,76.88
2023-04-15T07:58:03.640Z,76.78
2023-04-15T08:00:32.365Z,76.75
2023-04-15T08:03:00.972Z,76.45
2023-04-15T08:05:29.783Z,76.57
2023-04-15T08:07:58.960Z,76.90
2023-04-15T08:10:27.569Z,77.14
2023-04-15T08:12:56.675Z,77.22
2023-04-15T08:15:25.201Z,76.79
2023-04-15T08:17:54.038Z,76.55
2023-04-15T08:20:22.476Z,76.59
2023-04-15T08:22:52.335Z,76.53
2023-04-15T08:25:21.195Z,76.55
2023-04-15T08:27:49.669Z,76.61
2023-04-15T08:30:18.797Z,76.28
2023-04-15T08:32:47.645Z,76.32
2023-04-15T08:35:16.173Z,76.25
2023-04-15T08:37:44.584Z,76.46
2023-04-15T08:40:13.004Z,76.48
2023-04-15T08:42:47.454Z,76.62
2023-04-15T08:45:17.486Z,76.24
2023-04-15T08:47:48.516Z,76.08
2023-04-15T08:50:17.562Z,76.10
2023-04-15T08:52:45.842Z,76.42
2023-04-15T08:55:15.896Z,75.97
2023-04-15T08:57:45.180Z,76.20
2023-04-15T09:00:14.305Z,76.42
2023-04-15T09:02:43.556Z,76.40
2023-04-15T09:05:12.565Z,76.47
2023-04-15T09:07:41.441Z,76.54
2023-04-15T09:10:10.321Z,76.34
2023-04-15T09:12:38.722Z,76.57
2023-04-15T09:15:09.141Z,76.46
2023-04-15T09:17:44.234Z,75.76
2023-04-15T09:20:14.803Z,76.14
2023-04-15T09:22:47.269Z,76.21
2023-04-15T09:25:15.512Z,75.76
2023-04-15T09:27:54.679Z,75.56
2023-04-15T09:30:24.053Z,75.65
2023-04-15T09:33:02.378Z,75.95
2023-04-15T09:35:31.212Z,76.10
2023-04-15T09:38:10.574Z,76.17
2023-04-15T09:40:41.320Z,75.68
2023-04-15T09:43:13.274Z,75.26
2023-04-15T09:45:54.441Z,74.91
2023-04-15T09:48:27.963Z,74.63
2023-04-15T09:51:02.173Z,74.92
2023-04-15T09:53:34.374Z,75.30
2023-04-15T09:56:03.857Z,75.40
2023-04-15T09:58:35.317Z,74.71
2023-04-15T10:01:06.384Z,74.98
2023-04-15T10:03:37.797Z,75.12
2023-04-15T10:06:06.429Z,74.88
2023-04-15T10:08:35.312Z,74.50
2023-04-15T10:11:05.436Z,74.38
2023-04-15T10:13:35.338Z,74.47
2023-04-15T10:16:12.089Z,74.45
2023-04-15T10:18:46.415Z,74.28
2023-04-15T10:21:18.839Z,74.30
2023-04-15T10:23:47.971Z,74.04
2023-04-15T10:26:20.274Z,73.85
2023-04-15T10:28:49.211Z,73.97
2023-04-15T10:31:18.712Z,73.84
2023-04-15T10:33:49.446Z,73.81
2023-04-15T10:36:20.188Z,74.29
2023-04-15T10:38:48.711Z,73.84
2023-04-15T10:41:21.830Z,73.56
2023-04-15T10:44:00.000Z,73.69
2023-04-15T10:46:39.422Z,73.91
2023-04-15T10:49:13.250Z,73.95
2023-04-15T10:51:44.004Z,74.00
2023-04-15T10:54:17.791Z,74.19
2023-04-15T10:56:46.367Z,74.11
2023-04-15T10:59:16.648Z,74.17
2023-04-15T11:01:53.355Z,73.69
2023-04-15T11:04:59.700Z,73.28
2023-04-15T11:07:34.833Z,73.37
2023-04-15T11:10:05.064Z,73.18
2023-04-15T11:12:37.272Z,72.95
2023-04-15T11:15:32.089Z,72.82
2023-04-15T11:18:24.930Z,72.79
2023-04-15T11:20:57.580Z,72.91
2023-04-15T11:23:40.268Z,73.09
2023-04-15T11:26:12.142Z,73.16
2023-04-15T11:28:42.498Z,73.36
2023-04-15T11:31:15.841Z,73.46
2023-04-15T11:33:47.964Z,73.00
2023-04-15T11:36:16.645Z,73.32
2023-04-15T11:38:47.638Z,72.85
2023-04-15T11:41:21.137Z,72.77
2023-04-15T11:43:50.732Z,73.10
2023-04-15T11:46:19.792Z,72.62
2023-04-15T11:48:48.265Z,72.96
2023-04-15T11:51:16.830Z,73.18
2023-04-15T11:53:49.603Z,73.05
2023-04-15T11:56:22.196Z,72.76
2023-04-15T11:58:57.321Z,72.56
2023-04-15T12:01:36.949Z,73.04
2023-04-15T12:04:18.678Z,72.99
2023-04-15T12:06:49.103Z,72.97
2023-04-15T12:09:17.677Z,73.24
2023-04-15T12:11:47.781Z,73.34
2023-04-15T12:14:16.024Z,73.38
2023-04-15T12:16:51.752Z,73.25
2023-04-15T12:19:39.419Z,73.60
2023-04-15T12:22:17.910Z,73.93
2023-04-15T12:24:48.774Z,74.09
2023-04-15T12:27:17.853Z,73.58
2023-04-15T12:29:46.343Z,73.61
2023-04-15T12:32:16.793Z,73.40
2023-04-15T12:34:50.741Z,73.44
2023-04-15T12:37:19.753Z,73.87
2023-04-15T12:39:49.436Z,73.08
2023-04-15T12:42:18.282Z,73.15
2023-04-15T12:44:47.211Z,73.29
2023-04-15T12:47:22.092Z,72.90
2023-04-15T12:49:53.956Z,73.31
2023-04-15T12:52:22.480Z,73.65
2023-04-15T12:54:50.891Z,73.79
2023-04-15T12:57:19.251Z,73.74
2023-04-15T12:59:47.808Z,74.31
2023-04-15T13:02:16.216Z,74.47
2023-04-15T13:04:47.747Z,73.64
2023-04-15T13:07:16.108Z,73.83
2023-04-15T13:09:45.112Z,74.06
2023-04-15T13:12:14.714Z,74.01
2023-04-15T13:14:43.326Z,73.64
2023-04-15T13:17:12.459Z,73.63
2023-04-15T13:19:43.653Z,73.82
2023-04-15T13:22:12.868Z,74.08
2023-04-15T13:24:41.428Z,73.84
2023-04-15T13:27:13.388Z,73.68
2023-04-15T13:29:41.812Z,73.71
2023-04-15T13:32:10.250Z,74.04
2023-04-15T13:34:38.547Z,74.02
2023-04-15T13:37:08.222Z,74.07
2023-04-15T13:39:38.808Z,74.32
2023-04-15T13:42:07.065Z,74.52
2023-04-15T13:44:35.834Z,74.32
2023-04-15T13:47:04.201Z,74.17
2023-04-15T13:49:32.456Z,74.46
2023-04-15T13:52:00.916Z,74.78
2023-04-15T13:54:37.583Z,74.64
2023-04-15T13:57:07.107Z,74.57
2023-04-15T13:59:35.693Z,74.76
2023-04-15T14:02:04.210Z,74.59
2023-04-15T14:04:33.198Z,74.31
2023-04-15T14:07:03.347Z,74.34
2023-04-15T14:12:03.200Z,74.32
2023-04-15T14:14:31.800Z,74.31
2023-04-15T14:17:00.358Z,74.63
2023-04-15T14:19:31.384Z,74.49
2023-04-15T14:21:59.806Z,74.49
2023-04-15T14:24:28.055Z,74.53
2023-04-15T14:26:57.744Z,74.50
2023-04-15T14:29:26.585Z,74.50
2023-04-15T14:32:04.216Z,74.37
2023-04-15T14:34:40.942Z,74.38
2023-04-15T14:37:09.445Z,74.40
2023-04-15T14:39:37.852Z,74.24
2023-04-15T14:42:06.365Z,74.11
2023-04-15T14:44:34.679Z,74.46
2023-04-15T14:47:03.095Z,74.22
2023-04-15T14:49:32.374Z,74.41
2023-04-15T14:52:00.571Z,74.32
2023-04-15T14:54:29.045Z,74.18
2023-04-15T14:56:57.526Z,74.34
2023-04-15T14:59:25.804Z,74.02
2023-04-15T15:01:54.188Z,74.14
2023-04-15T15:04:22.628Z,74.09
2023-04-15T15:06:51.134Z,74.02
2023-04-15T15:09:20.040Z,74.02
2023-04-15T15:11:48.444Z,73.99
2023-04-15T15:14:17.412Z,74.07
2023-04-15T15:16:45.644Z,74.01
2023-04-15T15:19:14.517Z,74.02
2023-04-15T15:21:42.865Z,73.74
2023-04-15T15:24:11.161Z,73.81
2023-04-15T15:26:40.357Z,73.90
2023-04-15T15:29:08.668Z,74.13
2023-04-15T15:31:36.916Z,74.17
2023-04-15T15:34:05.363Z,74.24
2023-04-15T15:36:34.070Z,74.35
2023-04-15T15:39:02.636Z,74.42
2023-04-15T15:41:33.583Z,74.39
2023-04-15T15:44:01.850Z,74.43
2023-04-15T15:46:31.695Z,74.36
2023-04-15T15:49:00.087Z,74.48
2023-04-15T15:51:28.991Z,74.48
2023-04-15T15:53:57.161Z,74.58
2023-04-15T15:56:25.469Z,74.55
2023-04-15T15:58:53.785Z,74.69
2023-04-15T16:01:22.229Z,74.80
2023-04-15T16:03:51.143Z,74.55
2023-04-15T16:06:19.693Z,74.73
2023-04-15T16:08:47.854Z,74.63
2023-04-15T16:11:16.273Z,74.67
2023-04-15T16:13:44.596Z,74.65
2023-04-15T16:16:12.879Z,74.68
2023-04-15T16:18:41.498Z,74.80
2023-04-15T16:21:09.864Z,75.02
2023-04-15T16:23:38.329Z,75.15
2023-04-15T16:26:07.490Z,75.27
2023-04-15T16:28:36.487Z,75.61
2023-04-15T16:31:04.806Z,75.63
2023-04-15T16:33:33.105Z,75.76
2023-04-15T16:36:01.421Z,75.91
2023-04-15T16:38:30.089Z,75.92
2023-04-15T16:41:00.682Z,75.83
2023-04-15T16:43:29.737Z,76.14
2023-04-15T16:49:44.514Z,76.49
2023-04-15T16:56:54.917Z,76.47
2023-04-15T16:59:38.199Z,76.56
2023-04-15T17:27:53.533Z,76.45
2023-04-15T17:30:22.069Z,76.56
2023-04-15T17:32:51.974Z,76.81
2023-04-15T17:35:20.133Z,76.73
2023-04-15T17:37:48.369Z,77.06
2023-04-15T17:40:16.865Z,77.09
2023-04-15T17:42:45.241Z,77.23
2023-04-15T17:45:15.262Z,77.49
2023-04-15T17:47:43.808Z,77.56
2023-04-15T17:50:12.152Z,77.55
2023-04-15T17:52:40.716Z,77.80
2023-04-15T17:55:10.186Z,77.83
2023-04-15T17:57:38.522Z,78.10
2023-04-15T18:00:09.031Z,78.26
2023-04-15T18:02:37.719Z,77.95
2023-04-15T18:05:06.873Z,78.08
2023-04-15T18:07:35.573Z,78.39
2023-04-15T18:10:04.463Z,78.29
2023-04-15T18:12:32.898Z,78.37
2023-04-15T18:15:01.226Z,78.28
2023-04-15T18:17:29.989Z,78.27
2023-04-15T18:19:58.325Z,78.45
2023-04-15T18:22:26.730Z,78.75
2023-04-15T18:24:55.061Z,78.88
2023-04-15T18:27:23.366Z,78.78
2023-04-15T18:29:52.035Z,78.95
2023-04-15T18:32:20.491Z,78.86
2023-04-15T18:34:48.930Z,78.84
2023-04-15T18:37:17.249Z,78.97
2023-04-15T18:39:45.576Z,78.97
2023-04-15T18:42:14.017Z,79.16
2023-04-15T18:44:42.334Z,79.05
2023-04-15T18:47:10.739Z,79.20
2023-04-15T18:49:39.214Z,79.33
2023-04-15T18:52:09.770Z,79.10
2023-04-15T18:54:38.359Z,78.93
2023-04-15T18:57:07.354Z,79.13
2023-04-15T18:59:43.637Z,79.10
2023-04-15T19:02:14.861Z,79.10
2023-04-15T19:04:43.397Z,79.38
2023-04-15T19:07:12.550Z,79.60
2023-04-15T19:09:41.638Z,79.52
2023-04-15T19:12:10.043Z,79.63
2023-04-15T19:14:38.538Z,79.52
2023-04-15T19:17:06.983Z,79.71
2023-04-15T19:19:35.477Z,79.90
2023-04-15T19:22:06.995Z,79.76
2023-04-15T19:24:37.033Z,80.00
2023-04-15T19:27:05.553Z,80.29
2023-04-15T19:29:33.970Z,80.64
2023-04-15T19:32:02.384Z,80.65
2023-04-15T19:34:31.502Z,80.75
2023-04-15T19:37:02.091Z,80.73
2023-04-15T19:39:30.804Z,80.91
2023-04-15T19:41:59.244Z,80.84
2023-04-15T19:44:27.460Z,80.90
2023-04-15T19:46:56.003Z,81.16
2023-04-15T19:49:26.778Z,80.98
2023-04-15T19:51:55.055Z,81.06
2023-04-15T19:54:24.318Z,81.13
2023-04-15T19:56:52.609Z,80.99
2023-04-15T19:59:21.197Z,81.38
2023-04-15T20:01:49.676Z,81.29
2023-04-15T20:04:43.265Z,81.17
2023-04-15T20:07:11.720Z,81.25
2023-04-15T20:44:51.965Z,81.16
2023-04-15T20:47:24.886Z,81.28
2023-04-15T20:49:53.398Z,81.23
2023-04-15T20:53:07.367Z,81.09
2023-04-15T20:55:56.709Z,81.08
2023-04-15T20:58:26.583Z,81.04
2023-04-15T21:00:55.397Z,80.93
2023-04-15T21:03:24.661Z,80.95
2023-04-15T21:06:02.488Z,80.88
2023-04-15T21:08:31.720Z,80.82
2023-04-15T21:11:00.276Z,80.81
2023-04-15T21:13:28.749Z,80.84
2023-04-15T21:15:58.636Z,80.71
2023-04-15T21:18:27.368Z,80.72
2023-04-15T21:21:00.400Z,80.59
2023-04-15T21:23:36.047Z,80.52
2023-04-15T21:26:04.536Z,80.54
2023-04-15T21:28:33.423Z,80.52
2023-04-15T21:31:01.797Z,80.60
2023-04-15T21:33:30.166Z,80.48
2023-04-15T21:35:58.570Z,80.36
2023-04-15T21:38:26.952Z,80.37
2023-04-15T21:40:55.373Z,80.49
2023-04-15T21:43:25.855Z,80.33
2023-04-15T21:46:23.685Z,80.41
2023-04-15T21:48:42.665Z,80.53
2023-04-15T21:51:11.559Z,80.49
2023-04-15T21:53:40.585Z,80.55
2023-04-15T21:56:09.061Z,80.35
2023-04-15T21:58:37.400Z,80.45
2023-04-15T22:01:05.991Z,80.37
2023-04-15T22:03:35.356Z,80.41
2023-04-15T22:06:04.194Z,80.32
2023-04-15T22:08:41.341Z,80.38
2023-04-15T22:11:27.628Z,80.40
2023-04-15T22:13:59.708Z,80.36
2023-04-15T22:16:28.619Z,80.43
2023-04-15T22:18:57.137Z,80.31
2023-04-15T22:21:25.698Z,80.30
2023-04-15T22:24:32.963Z,80.30
2023-04-15T22:26:42.771Z,80.38
2023-04-15T22:29:11.318Z,80.53
2023-04-15T22:31:39.697Z,80.60
2023-04-15T22:34:08.778Z,80.61
2023-04-15T22:36:37.193Z,80.66
2023-04-15T22:39:06.218Z,80.60
2023-04-15T22:41:34.828Z,80.58
2023-04-15T22:44:03.544Z,80.67
2023-04-15T22:46:31.889Z,80.49
2023-04-15T22:49:00.257Z,80.63
2023-04-15T22:51:28.944Z,80.38
2023-04-15T22:53:57.437Z,80.50
2023-04-15T22:56:26.743Z,80.51
2023-04-15T22:58:54.960Z,80.46
2023-04-15T23:01:23.310Z,80.48
2023-04-15T23:03:56.729Z,80.42
2023-04-15T23:06:30.279Z,80.38
2023-04-15T23:08:58.709Z,80.31
2023-04-15T23:11:27.052Z,80.48
2023-04-15T23:13:55.367Z,80.51
2023-04-15T23:16:23.940Z,80.55
2023-04-15T23:18:52.267Z,80.48
2023-04-15T23:21:21.053Z,80.55
2023-04-15T23:23:49.273Z,80.50
2023-04-15T23:26:17.458Z,80.47
2023-04-15T23:28:45.733Z,80.41
2023-04-15T23:31:14.023Z,80.33
2023-04-15T23:33:42.311Z,80.41
2023-04-15T23:36:10.511Z,80.33
2023-04-15T23:38:40.694Z,80.37
2023-04-15T23:41:10.070Z,80.32
2023-04-15T23:43:38.374Z,80.33
2023-04-15T23:46:06.944Z,80.40
2023-04-15T23:48:35.119Z,80.50
2023-04-15T23:51:03.796Z,80.48
2023-04-15T23:53:32.188Z,80.30
2023-04-15T23:56:00.532Z,80.47
2023-04-15T23:58:28.887Z,80.57
